createdAt,value
2018-01-26T00:00:05.014Z,6.0
2018-01-26T00:05:03.255Z,6.0
2018-01-26T00:10:02.844Z,6.0
2018-01-26T00:15:02.438Z,6.1
2018-01-26T00:20:03.054Z,6.1
2018-01-26T00:25:02.643Z,6.0
2018-01-26T00:30:03.134Z,6.0
2018-01-26T00:35:02.749Z,6.0
2018-01-26T00:40:02.382Z,6.0
2018-01-26T00:45:03.067Z,6.0
2018-01-26T00:50:02.680Z,6.0
2018-01-26T00:55:03.298Z,6.0
2018-01-26T01:00:02.903Z,6.0
2018-01-26T01:05:03.284Z,6.0
2018-01-26T01:10:03.130Z,6.1
2018-01-26T01:15:02.714Z,6.0
2018-01-26T01:20:03.311Z,6.0
2018-01-26T01:25:02.873Z,6.0
2018-01-26T01:30:02.436Z,5.9
2018-01-26T01:35:02.999Z,5.9
2018-01-26T01:40:02.709Z,5.8
2018-01-26T01:45:03.313Z,5.5
2018-01-26T01:50:03.038Z,5.5
2018-01-26T01:55:02.687Z,5.3
2018-01-26T02:00:03.263Z,5.3
2018-01-26T02:05:02.830Z,5.3
2018-01-26T02:10:02.470Z,5.3
2018-01-26T02:15:02.990Z,5.3
2018-01-26T02:20:02.517Z,5.3
2018-01-26T02:25:03.066Z,5.3
2018-01-26T02:30:02.715Z,5.0
2018-01-26T02:35:03.308Z,5.0
2018-01-26T02:40:02.977Z,5.0
2018-01-26T02:45:02.598Z,5.0
2018-01-26T02:50:03.371Z,4.8
2018-01-26T02:55:02.938Z,4.8
2018-01-26T03:00:02.478Z,5.0
2018-01-26T03:05:03.084Z,5.0
2018-01-26T03:10:02.798Z,4.8
2018-01-26T03:15:02.413Z,4.5
2018-01-26T03:20:03.057Z,4.5
2018-01-26T03:25:02.666Z,4.5
2018-01-26T03:30:03.266Z,4.5
2018-01-26T03:35:02.921Z,4.5
2018-01-26T03:40:02.666Z,4.5
2018-01-26T03:45:03.215Z,4.5
2018-01-26T03:50:02.861Z,4.5
2018-01-26T03:55:02.519Z,4.5
2018-01-26T04:00:03.241Z,4.5
2018-01-26T04:05:02.890Z,4.3
2018-01-26T04:10:02.586Z,4.3
2018-01-26T04:15:03.188Z,4.3
2018-01-26T04:20:02.800Z,4.5
2018-01-26T04:25:02.377Z,4.8
2018-01-26T04:30:02.944Z,4.8
2018-01-26T04:35:02.584Z,4.8
2018-01-26T04:40:03.149Z,4.8
2018-01-26T04:45:02.722Z,4.5
2018-01-26T04:50:03.318Z,4.5
2018-01-26T04:55:02.944Z,4.8
2018-01-26T05:00:02.591Z,4.8
2018-01-26T05:05:03.174Z,4.5
2018-01-26T05:10:02.890Z,4.5
2018-01-26T05:15:02.535Z,4.5
2018-01-26T05:20:03.224Z,4.5
2018-01-26T05:25:02.836Z,4.5
2018-01-26T05:30:03.264Z,4.5
2018-01-26T05:35:02.863Z,4.5
2018-01-26T05:40:02.547Z,4.5
2018-01-26T05:45:03.173Z,4.5
2018-01-26T05:50:02.774Z,4.5
2018-01-26T05:55:03.370Z,4.5
2018-01-26T06:00:03.035Z,4.5
2018-01-26T06:10:02.716Z,4.5
2018-01-26T06:15:03.298Z,4.5
2018-01-26T06:20:02.827Z,4.3
2018-01-26T06:25:02.466Z,4.5
2018-01-26T06:30:03.111Z,4.3
2018-01-26T06:35:02.681Z,4.3
2018-01-26T06:40:03.346Z,4.3
2018-01-26T06:45:02.934Z,4.0
2018-01-26T06:50:02.560Z,4.0
2018-01-26T06:55:03.192Z,4.0
2018-01-26T07:00:02.819Z,4.0
2018-01-26T07:05:02.465Z,3.7
2018-01-26T07:10:03.102Z,4.0
2018-01-26T07:15:02.670Z,4.0
2018-01-26T07:20:03.248Z,3.7
2018-01-26T07:25:02.816Z,3.7
2018-01-26T07:30:02.417Z,3.7
2018-01-26T07:35:03.047Z,3.7
2018-01-26T07:40:02.709Z,3.7
2018-01-26T07:45:03.267Z,3.7
2018-01-26T07:50:02.965Z,3.7
2018-01-26T07:55:02.614Z,3.7
2018-01-26T08:00:03.210Z,3.7
2018-01-26T08:05:02.781Z,3.7
2018-01-26T08:10:02.427Z,3.7
2018-01-26T08:15:03.062Z,3.5
2018-01-26T08:20:02.710Z,3.5
2018-01-26T08:25:03.278Z,3.5
2018-01-26T08:30:02.868Z,3.7
2018-01-26T08:35:02.497Z,3.7
2018-01-26T08:40:03.114Z,3.7
2018-01-26T08:45:02.762Z,3.7
2018-01-26T08:50:02.404Z,3.7
2018-01-26T08:55:02.957Z,4.0
2018-01-26T09:00:02.601Z,4.0
2018-01-26T09:05:03.285Z,4.0
2018-01-26T09:10:03.027Z,4.0
2018-01-26T09:15:02.955Z,4.3
2018-01-26T09:20:02.640Z,4.5
2018-01-26T09:25:03.222Z,4.5
2018-01-26T09:30:02.797Z,4.8
2018-01-26T09:35:02.365Z,5.0
2018-01-26T09:40:02.955Z,5.3
2018-01-26T09:45:02.557Z,5.3
2018-01-26T09:50:03.191Z,5.0
2018-01-26T09:55:02.724Z,5.0
2018-01-26T10:00:03.372Z,5.0
2018-01-26T10:05:02.881Z,5.3
2018-01-26T10:10:02.571Z,5.0
2018-01-26T10:15:03.045Z,5.3
2018-01-26T10:20:02.662Z,5.4
2018-01-26T10:25:03.239Z,5.9
2018-01-26T10:30:02.882Z,7.0
2018-01-26T10:35:02.404Z,8.1
2018-01-26T10:40:03.091Z,7.4
2018-01-26T10:45:02.700Z,6.9
2018-01-26T10:50:02.434Z,6.6
2018-01-26T10:55:03.082Z,6.6
2018-01-26T11:00:02.615Z,6.9
2018-01-26T11:05:03.136Z,7.1
2018-01-26T11:10:02.680Z,6.9
2018-01-26T11:15:03.278Z,7.1
2018-01-26T11:20:02.935Z,7.1
2018-01-26T11:25:02.461Z,6.9
2018-01-26T11:30:03.076Z,6.6
2018-01-26T11:35:02.591Z,6.9
2018-01-26T11:40:03.264Z,7.1
2018-01-26T11:45:02.839Z,7.0
2018-01-26T11:50:02.396Z,7.1
2018-01-26T11:55:03.027Z,7.1
2018-01-26T12:00:02.506Z,7.5
2018-01-26T12:05:03.133Z,7.5
2018-01-26T12:10:02.795Z,7.4
2018-01-26T12:15:03.274Z,7.4
2018-01-26T12:20:02.767Z,7.9
2018-01-26T12:25:02.394Z,7.5
2018-01-26T12:30:03.061Z,7.6
2018-01-26T12:35:02.572Z,7.9
2018-01-26T12:40:03.094Z,8.1
2018-01-26T12:45:02.668Z,8.0
2018-01-26T12:50:03.262Z,7.9
2018-01-26T12:55:02.725Z,7.5
2018-01-26T13:00:03.269Z,8.0
2018-01-26T13:05:03.019Z,8.1
2018-01-26T13:10:02.741Z,8.0
2018-01-26T13:15:02.375Z,7.9
2018-01-26T13:20:03.037Z,7.9
2018-01-26T13:25:02.639Z,8.0
2018-01-26T13:30:03.264Z,8.0
2018-01-26T13:35:02.831Z,8.1
2018-01-26T13:40:02.484Z,8.0
2018-01-26T13:45:02.958Z,7.9
2018-01-26T13:50:02.541Z,7.9
2018-01-26T13:55:03.177Z,8.0
2018-01-26T14:00:02.872Z,7.9
2018-01-26T14:05:02.642Z,7.6
2018-01-26T14:10:02.563Z,7.5
2018-01-26T14:15:03.174Z,7.5
2018-01-26T14:20:02.837Z,7.4
2018-01-26T14:25:03.360Z,7.4
2018-01-26T14:30:03.039Z,7.4
2018-01-26T14:35:02.545Z,7.4
2018-01-26T14:40:03.220Z,7.1
2018-01-26T14:45:02.696Z,7.4
2018-01-26T14:50:03.358Z,7.4
2018-01-26T14:55:02.999Z,7.5
2018-01-26T15:00:02.628Z,7.5
2018-01-26T15:05:03.102Z,7.5
2018-01-26T15:10:02.736Z,7.6
2018-01-26T15:15:03.282Z,7.6
2018-01-26T15:20:02.784Z,7.5
2018-01-26T15:25:02.460Z,7.5
2018-01-26T15:30:02.973Z,7.5
2018-01-26T15:35:02.490Z,7.6
2018-01-26T15:40:03.276Z,7.6
2018-01-26T15:45:02.997Z,7.6
2018-01-26T15:50:02.507Z,7.5
2018-01-26T15:55:03.240Z,7.5
2018-01-26T16:00:03.062Z,7.4
2018-01-26T16:05:02.726Z,7.4
2018-01-26T16:10:03.277Z,7.1
2018-01-26T16:15:02.857Z,6.6
2018-01-26T16:20:02.440Z,6.6
2018-01-26T16:25:03.078Z,6.4
2018-01-26T16:30:02.733Z,6.1
2018-01-26T16:35:03.349Z,6.1
2018-01-26T16:40:02.802Z,6.1
2018-01-26T16:45:03.325Z,6.1
2018-01-26T16:50:02.951Z,6.1
2018-01-26T16:55:02.517Z,6.4
2018-01-26T17:00:02.995Z,6.4
2018-01-26T17:05:02.657Z,6.5
2018-01-26T17:10:03.132Z,6.5
2018-01-26T17:15:02.785Z,6.5
2018-01-26T17:20:02.580Z,6.5
2018-01-26T17:25:03.151Z,6.5
2018-01-26T17:30:02.599Z,6.6
2018-01-26T17:35:03.317Z,6.6
2018-01-26T17:40:02.788Z,6.5
2018-01-26T17:45:03.185Z,6.4
2018-01-26T17:50:02.796Z,6.4
2018-01-26T17:55:02.379Z,6.5
2018-01-26T18:00:03.098Z,6.5
2018-01-26T18:05:02.621Z,6.5
2018-01-26T18:10:03.289Z,6.4
2018-01-26T18:15:02.901Z,6.4
2018-01-26T18:20:02.425Z,6.4
2018-01-26T18:25:03.077Z,6.1
2018-01-26T18:30:02.610Z,6.4
2018-01-26T18:35:03.201Z,6.1
2018-01-26T18:40:02.713Z,5.9
2018-01-26T18:45:02.401Z,5.9
2018-01-26T18:50:03.085Z,5.8
2018-01-26T18:55:02.564Z,5.8
2018-01-26T19:00:02.943Z,5.5
2018-01-26T19:05:02.459Z,5.8
2018-01-26T19:10:02.988Z,5.8
2018-01-26T19:15:02.679Z,5.9
2018-01-26T19:20:03.275Z,5.9
2018-01-26T19:25:02.908Z,5.5
2018-01-26T19:30:02.511Z,5.5
2018-01-26T19:35:03.069Z,5.8
2018-01-26T19:40:02.752Z,5.9
2018-01-26T19:45:03.234Z,5.9
2018-01-26T19:50:02.937Z,5.8
2018-01-26T19:55:02.534Z,5.9
2018-01-26T20:00:03.126Z,5.8
2018-01-26T20:05:02.750Z,5.5
2018-01-26T20:10:03.322Z,5.5
2018-01-26T20:15:02.885Z,5.4
2018-01-26T20:20:02.560Z,5.4
2018-01-26T20:25:03.294Z,5.8
2018-01-26T20:30:02.983Z,5.5
2018-01-26T20:35:02.521Z,5.5
2018-01-26T20:40:03.216Z,5.5
2018-01-26T20:45:02.781Z,5.5
2018-01-26T20:50:02.495Z,5.8
2018-01-26T20:55:03.217Z,5.8
2018-01-26T21:00:02.898Z,5.8
2018-01-26T21:05:02.652Z,5.9
2018-01-26T21:10:02.439Z,5.8
2018-01-26T21:15:02.894Z,5.8
2018-01-26T21:20:02.463Z,5.8
2018-01-26T21:25:03.036Z,5.9
2018-01-26T21:30:02.546Z,5.9
2018-01-26T21:35:03.158Z,5.9
2018-01-26T21:40:02.757Z,6.0
2018-01-26T21:45:03.268Z,5.9
2018-01-26T21:50:02.878Z,6.0
2018-01-26T21:55:02.584Z,6.0
2018-01-26T22:00:03.471Z,5.9
2018-01-26T22:05:03.125Z,5.9
2018-01-26T22:10:02.629Z,5.9
2018-01-26T22:15:03.231Z,5.9
2018-01-26T22:20:02.863Z,5.9
2018-01-26T22:25:02.498Z,5.9
2018-01-26T22:30:03.144Z,5.9
2018-01-26T22:35:02.826Z,5.9
2018-01-26T22:40:02.501Z,5.9
2018-01-26T22:45:03.044Z,5.9
2018-01-26T22:50:02.445Z,5.9
2018-01-26T22:55:03.081Z,5.9
2018-01-26T23:00:02.750Z,5.8
2018-01-26T23:05:03.244Z,5.9
2018-01-26T23:10:02.832Z,5.9
2018-01-26T23:15:02.445Z,5.9
2018-01-26T23:20:03.064Z,6.0
2018-01-26T23:25:02.553Z,6.0
2018-01-26T23:30:03.253Z,5.9
2018-01-26T23:35:02.811Z,5.5
2018-01-26T23:40:02.416Z,5.5
2018-01-26T23:45:03.101Z,5.5
2018-01-26T23:50:02.754Z,5.5
2018-01-26T23:55:02.363Z,5.5
